Main page
METAR-TAF:

METAR-TAF

Airports :

Vitoria Airport

Vitoria, Spain

latitude: 42-53N, longitude: 002-43W, elevation: 513 m

Current weather observation

The report was made 32 minutes ago, at 08:30 UTC
Wind 1 kt from variable directions
Temperature 9°C
Humidity 76%
Pressure 1013 hPa
Visibility 10 km or more
Few clouds at a height of 1000 ft
Broken clouds at a height of 2100 ft
Broken clouds at a height of 5000 ft
light rain

METAR: LEVT 010830Z VRB01KT 9999 -RA FEW010 BKN021 BKN050 09/05 Q1013

Time: 11:02 (09:02 UTC)

Forecast

The report was made 4 hours and 2 minutes ago, at 05:00 UTC
Forecast valid from 01 at 06 UTC to 02 at 06 UTC
Wind 9 kt from the East/Southeast
Visibility 10 km or more
Broken clouds at a height of 2000 ft
Probability 40% :
Temporary
from 01 at 09 UTC to 02 at 06 UTC
Visibility: 3000 m
Broken clouds at a height of 1000 ft
Broken clouds at a height of 1400 ft
light rain

TAF: LEVT 010500Z 0106/0206 11009KT 9999 BKN020 TX12/0115Z TN06/0206Z PROB40 TEMPO 0109/0206 3000 -RA BKN010 BKN014

Weather observations and forecasts of more than 4000 airports (METAR and TAF reports).

The available stations are represented by yellow and red dots on the map.

Hover mouse over dot to see the name of the station.

Then click to see weather observations and forecasts.

To change the map : click on the green buttons with a black cross to zoom in, on the green button with a dash to zoom out, or on the green arrows for adjacent maps.


METAR-TAF: